Terminal Aerodrome Forecast
Issued by NWS Jackson, MS

Home | Current Version | Previous Version | Text Only | Print | Product List | Glossary On
Versions: 1 2 3 4 5 6 7 8 9 10 11 12 13
000
FTUS44 KMEG 301900 AAA
TAFTUP
TAF AMD
KTUP 301927Z 3019/3118 18006KT P6SM -SHRA VCTS SCT025 BKN035CB
      TEMPO 3020/3023 18015G30KT 2SM +TSRA OVC035CB
     FM310400 22008KT 5SM SHRA VCTS BKN015CB OVC025CB
     FM311500 23011KT P6SM VCSH BKN025=

USA.gov is the U.S. government's official web portal to all federal, state and local government web resources and services.